createdAt,value
2018-03-31T00:00:49.466Z,99.90
2018-03-31T00:03:17.292Z,99.90
2018-03-31T00:05:44.315Z,99.90
2018-03-31T00:08:11.335Z,99.90
2018-03-31T00:10:39.122Z,99.90
2018-03-31T00:13:06.717Z,99.90
2018-03-31T00:15:33.818Z,99.90
2018-03-31T00:18:01.577Z,99.90
2018-03-31T00:20:28.581Z,99.90
2018-03-31T00:22:55.579Z,99.90
2018-03-31T00:25:22.603Z,99.90
2018-03-31T00:27:50.382Z,99.90
2018-03-31T00:30:17.424Z,99.90
2018-03-31T00:32:44.438Z,99.90
2018-03-31T00:35:11.430Z,99.90
2018-03-31T00:37:38.479Z,99.90
2018-03-31T00:40:05.459Z,99.90
2018-03-31T00:42:32.466Z,99.90
2018-03-31T00:44:59.490Z,99.90
2018-03-31T00:47:27.270Z,99.90
2018-03-31T00:49:55.094Z,99.90
2018-03-31T00:52:22.111Z,99.90
2018-03-31T00:54:49.106Z,99.90
2018-03-31T00:57:16.872Z,99.90
2018-03-31T00:59:44.735Z,99.90
2018-03-31T01:02:12.529Z,99.90
2018-03-31T01:04:39.532Z,99.90
2018-03-31T01:07:07.286Z,99.90
2018-03-31T01:09:34.293Z,99.90
2018-03-31T01:12:01.299Z,99.90
2018-03-31T01:14:29.117Z,99.90
2018-03-31T01:16:56.113Z,99.90
2018-03-31T01:19:23.130Z,99.90
2018-03-31T01:21:50.135Z,99.90
2018-03-31T01:24:17.127Z,99.90
2018-03-31T01:26:44.118Z,99.90
2018-03-31T01:29:11.122Z,99.90
2018-03-31T01:31:38.912Z,99.90
2018-03-31T01:34:06.692Z,99.90
2018-03-31T01:36:33.832Z,99.90
2018-03-31T01:39:00.832Z,99.90
2018-03-31T01:41:27.818Z,99.90
2018-03-31T01:43:54.827Z,99.90
2018-03-31T01:46:21.839Z,99.90
2018-03-31T01:48:48.847Z,99.90
2018-03-31T01:51:15.873Z,99.90
2018-03-31T01:53:43.677Z,99.90
2018-03-31T01:56:10.697Z,99.90
2018-03-31T01:58:38.439Z,99.90
2018-03-31T02:01:05.444Z,99.90
2018-03-31T02:03:32.469Z,99.90
2018-03-31T02:05:59.463Z,99.90
2018-03-31T02:08:27.950Z,99.90
2018-03-31T02:10:54.943Z,99.90
2018-03-31T02:13:21.929Z,99.90
2018-03-31T02:15:49.696Z,99.90
2018-03-31T02:18:17.459Z,99.90
2018-03-31T02:20:45.765Z,99.90
2018-03-31T02:23:13.520Z,99.90
2018-03-31T02:25:41.291Z,99.90
2018-03-31T02:28:09.583Z,99.90
2018-03-31T02:30:36.589Z,99.90
2018-03-31T02:33:03.671Z,99.90
2018-03-31T02:35:31.454Z,99.90
2018-03-31T02:37:58.462Z,99.90
2018-03-31T02:40:26.221Z,99.90
2018-03-31T02:42:53.227Z,99.90
2018-03-31T02:45:20.204Z,99.90
2018-03-31T02:47:47.229Z,99.90
2018-03-31T02:50:14.322Z,99.90
2018-03-31T02:52:42.194Z,99.90
2018-03-31T02:55:09.184Z,99.90
2018-03-31T02:57:36.212Z,99.90
2018-03-31T03:00:03.204Z,99.90
2018-03-31T03:02:30.237Z,99.90
2018-03-31T03:04:57.247Z,99.90
2018-03-31T03:07:24.282Z,99.90
2018-03-31T03:09:51.297Z,99.90
2018-03-31T03:12:19.055Z,99.90
2018-03-31T03:14:46.823Z,99.90
2018-03-31T03:17:14.583Z,99.90
2018-03-31T03:19:42.376Z,99.90
2018-03-31T03:22:09.350Z,99.90
2018-03-31T03:24:36.355Z,99.90
2018-03-31T03:27:04.239Z,99.90
2018-03-31T03:29:31.272Z,99.90
2018-03-31T03:31:58.290Z,99.90
2018-03-31T03:34:26.065Z,99.90
2018-03-31T03:36:53.829Z,99.90
2018-03-31T03:39:21.599Z,99.90
2018-03-31T03:41:48.603Z,99.90
2018-03-31T03:44:16.381Z,99.90
2018-03-31T03:46:43.377Z,99.90
2018-03-31T03:49:10.394Z,99.90
2018-03-31T03:51:38.155Z,99.90
2018-03-31T03:54:06.602Z,99.90
2018-03-31T03:56:35.100Z,99.90
2018-03-31T03:59:03.176Z,99.90
2018-03-31T04:01:30.935Z,99.90
2018-03-31T04:03:58.690Z,99.90
2018-03-31T04:06:25.694Z,99.90
2018-03-31T04:08:52.682Z,99.90
2018-03-31T04:11:19.720Z,99.90
2018-03-31T04:16:20.125Z,99.90
2018-03-31T04:18:47.107Z,99.90
2018-03-31T04:21:14.113Z,99.90
2018-03-31T04:23:41.125Z,99.90
2018-03-31T04:26:08.137Z,99.90
2018-03-31T04:28:35.148Z,99.90
2018-03-31T04:31:02.170Z,99.90
2018-03-31T04:33:29.214Z,99.90
2018-03-31T04:35:57.010Z,99.90
2018-03-31T04:38:23.987Z,99.90
2018-03-31T04:40:51.003Z,99.90
2018-03-31T04:43:17.982Z,99.90
2018-03-31T04:45:45.009Z,99.90
2018-03-31T04:48:12.005Z,99.90
2018-03-31T04:50:39.007Z,99.90
2018-03-31T04:53:06.044Z,99.90
2018-03-31T04:55:33.037Z,99.90
2018-03-31T04:58:00.088Z,99.90
2018-03-31T05:00:27.082Z,99.90
2018-03-31T05:02:54.110Z,99.90
2018-03-31T05:05:21.126Z,99.90
2018-03-31T05:07:48.127Z,99.90
2018-03-31T05:10:15.132Z,99.90
2018-03-31T05:12:42.152Z,99.90
2018-03-31T05:15:09.937Z,99.90
2018-03-31T05:17:36.934Z,99.90
2018-03-31T05:20:03.937Z,99.90
2018-03-31T05:22:31.065Z,99.90
2018-03-31T05:24:58.101Z,99.90
2018-03-31T05:27:26.130Z,99.90
2018-03-31T05:29:53.102Z,99.90
2018-03-31T05:32:20.912Z,99.90
2018-03-31T05:34:47.989Z,99.90
2018-03-31T05:37:14.979Z,99.90
2018-03-31T05:39:41.999Z,99.90
2018-03-31T05:42:09.006Z,99.90
2018-03-31T05:44:36.644Z,99.90
2018-03-31T05:47:03.641Z,99.90
2018-03-31T05:49:30.648Z,99.90
2018-03-31T05:51:57.643Z,99.90
2018-03-31T05:54:26.002Z,99.90
2018-03-31T05:56:54.512Z,99.90
2018-03-31T05:59:22.283Z,99.90
2018-03-31T06:01:50.050Z,99.90
2018-03-31T06:04:17.828Z,99.90
2018-03-31T06:06:44.884Z,99.90
2018-03-31T06:09:11.956Z,99.90
2018-03-31T06:11:38.979Z,99.90
2018-03-31T06:14:05.984Z,99.90
2018-03-31T06:16:32.984Z,99.90
2018-03-31T06:18:59.991Z,99.90
2018-03-31T06:21:26.996Z,99.90
2018-03-31T06:23:54.063Z,99.90
2018-03-31T06:26:21.074Z,99.90
2018-03-31T06:28:48.066Z,99.90
2018-03-31T06:31:15.856Z,99.90
2018-03-31T06:33:42.851Z,99.90
2018-03-31T06:36:09.863Z,99.90
2018-03-31T06:38:36.866Z,99.90
2018-03-31T06:41:04.683Z,99.90
2018-03-31T06:43:31.705Z,99.90
2018-03-31T06:45:58.726Z,99.90
2018-03-31T06:48:25.732Z,99.90
2018-03-31T06:50:52.807Z,99.90
2018-03-31T06:53:20.598Z,99.90
2018-03-31T06:55:47.607Z,99.90
2018-03-31T06:58:14.808Z,99.90
2018-03-31T07:00:41.839Z,99.90
2018-03-31T07:03:09.025Z,99.90
2018-03-31T07:05:36.070Z,99.90
2018-03-31T07:08:03.070Z,99.90
2018-03-31T07:10:30.061Z,99.90
2018-03-31T07:12:57.089Z,99.90
2018-03-31T07:15:24.149Z,99.90
2018-03-31T07:17:51.208Z,99.90
2018-03-31T07:20:18.202Z,99.90
2018-03-31T07:22:45.222Z,99.90
2018-03-31T07:25:12.225Z,99.90
2018-03-31T07:27:39.222Z,99.90
2018-03-31T07:30:06.995Z,99.90
2018-03-31T07:32:35.662Z,99.70
2018-03-31T07:35:03.418Z,99.50
2018-03-31T07:37:30.435Z,99.50
2018-03-31T07:39:57.460Z,99.90
2018-03-31T07:42:24.474Z,99.70
2018-03-31T07:44:52.235Z,96.90
2018-03-31T07:47:20.001Z,98.50
2018-03-31T07:49:47.750Z,99.10
2018-03-31T07:52:15.812Z,98.70
2018-03-31T07:54:42.809Z,98.70
2018-03-31T07:57:09.815Z,98.90
2018-03-31T07:59:37.576Z,98.40
2018-03-31T08:02:05.422Z,97.60
2018-03-31T08:04:32.440Z,97.60
2018-03-31T08:06:59.489Z,94.40
2018-03-31T08:09:26.819Z,94.20
2018-03-31T08:11:53.824Z,95.00
2018-03-31T08:14:20.860Z,93.00
2018-03-31T08:16:47.936Z,87.70
2018-03-31T08:19:15.715Z,86.10
2018-03-31T08:21:42.714Z,86.10
2018-03-31T08:24:09.770Z,82.80
2018-03-31T08:26:36.762Z,87.10
2018-03-31T08:29:03.798Z,85.90
2018-03-31T08:31:30.798Z,88.60
2018-03-31T08:33:57.808Z,90.80
2018-03-31T08:36:24.906Z,85.90
2018-03-31T08:38:52.714Z,90.20
2018-03-31T08:41:19.731Z,90.40
2018-03-31T08:43:47.494Z,85.60
2018-03-31T08:46:15.464Z,85.10
2018-03-31T08:48:42.980Z,85.10
2018-03-31T08:51:10.099Z,87.00
2018-03-31T08:53:37.083Z,87.80
2018-03-31T08:56:04.105Z,84.80
2018-03-31T08:58:31.121Z,90.10
2018-03-31T09:00:58.134Z,90.60
2018-03-31T09:03:25.920Z,84.10
2018-03-31T09:05:52.971Z,84.10
2018-03-31T09:08:19.981Z,81.40
2018-03-31T09:10:46.987Z,85.00
2018-03-31T09:13:14.374Z,80.80
2018-03-31T09:15:41.410Z,81.20
2018-03-31T09:18:09.293Z,78.50
2018-03-31T09:20:36.308Z,78.60
2018-03-31T09:23:03.315Z,79.50
2018-03-31T09:25:31.200Z,81.10
2018-03-31T09:27:58.210Z,80.70
2018-03-31T09:30:26.128Z,75.20
2018-03-31T09:32:53.253Z,75.20
2018-03-31T09:35:21.060Z,76.10
2018-03-31T09:37:48.086Z,76.10
2018-03-31T09:40:15.392Z,77.80
2018-03-31T09:42:42.471Z,78.40
2018-03-31T09:45:09.470Z,80.80
2018-03-31T09:47:37.252Z,82.60
2018-03-31T09:50:05.040Z,79.10
2018-03-31T09:52:32.055Z,79.10
2018-03-31T09:54:59.072Z,79.70
2018-03-31T09:57:26.088Z,81.60
2018-03-31T09:59:53.092Z,79.20
2018-03-31T10:02:20.872Z,77.60
2018-03-31T10:04:48.023Z,77.60
2018-03-31T10:07:15.034Z,77.30
2018-03-31T10:09:42.070Z,74.20
2018-03-31T10:12:09.075Z,73.50
2018-03-31T10:14:36.083Z,75.60
2018-03-31T10:17:04.078Z,75.20
2018-03-31T10:19:31.120Z,75.00
2018-03-31T10:21:58.141Z,74.40
2018-03-31T10:24:25.143Z,73.60
2018-03-31T10:26:52.134Z,71.10
2018-03-31T10:29:19.203Z,70.30
2018-03-31T10:31:46.194Z,65.70
2018-03-31T10:34:13.200Z,63.50
2018-03-31T10:36:40.256Z,59.60
2018-03-31T10:39:07.309Z,56.80
2018-03-31T10:41:34.295Z,56.60
2018-03-31T10:44:01.347Z,56.90
2018-03-31T10:46:29.116Z,54.70
2018-03-31T10:48:56.917Z,53.30
2018-03-31T10:51:23.906Z,53.30
2018-03-31T10:53:50.933Z,53.90
2018-03-31T10:56:17.928Z,55.20
2018-03-31T10:58:45.720Z,56.60
2018-03-31T11:01:12.741Z,56.60
2018-03-31T11:03:40.504Z,57.90
2018-03-31T11:06:08.467Z,57.80
2018-03-31T11:08:36.234Z,58.40
2018-03-31T11:11:04.135Z,58.40
2018-03-31T11:13:31.173Z,58.40
2018-03-31T11:15:58.195Z,58.40
2018-03-31T11:18:25.980Z,58.10
2018-03-31T11:20:52.979Z,58.10
2018-03-31T11:23:20.003Z,58.40
2018-03-31T11:25:47.025Z,58.50
2018-03-31T11:28:14.073Z,58.40
2018-03-31T11:30:41.098Z,58.00
2018-03-31T11:33:08.876Z,59.00
2018-03-31T11:35:35.897Z,59.00
2018-03-31T11:38:03.679Z,58.00
2018-03-31T11:40:30.713Z,58.10
2018-03-31T11:42:58.546Z,58.00
2018-03-31T11:45:25.541Z,58.00
2018-03-31T11:47:52.567Z,58.50
2018-03-31T11:50:20.369Z,58.70
2018-03-31T11:52:47.370Z,58.50
2018-03-31T11:55:15.156Z,56.80
2018-03-31T11:57:42.159Z,56.80
2018-03-31T12:00:09.158Z,55.00
2018-03-31T12:02:36.235Z,55.30
2018-03-31T12:05:03.352Z,55.50
2018-03-31T12:07:30.352Z,55.60
2018-03-31T12:09:58.131Z,56.60
2018-03-31T12:12:25.911Z,55.90
2018-03-31T12:14:52.934Z,55.90
2018-03-31T12:17:20.704Z,56.40
2018-03-31T12:19:47.703Z,56.30
2018-03-31T12:22:14.721Z,56.00
2018-03-31T12:24:41.788Z,56.80
2018-03-31T12:27:09.150Z,56.60
2018-03-31T12:29:36.091Z,57.30
2018-03-31T12:32:03.119Z,58.60
2018-03-31T12:34:30.134Z,59.00
2018-03-31T12:36:57.848Z,58.10
2018-03-31T12:39:24.851Z,58.10
2018-03-31T12:41:51.843Z,56.90
2018-03-31T12:44:18.887Z,56.10
2018-03-31T12:49:19.380Z,57.20
2018-03-31T12:51:46.417Z,57.20
2018-03-31T12:54:14.183Z,56.20
2018-03-31T12:56:42.194Z,56.30
2018-03-31T12:59:09.201Z,55.80
2018-03-31T13:01:36.224Z,55.80
2018-03-31T13:04:03.996Z,56.10
2018-03-31T13:06:31.760Z,56.30
2018-03-31T13:08:59.523Z,54.70
2018-03-31T13:11:27.659Z,55.60
2018-03-31T13:13:54.710Z,55.50
2018-03-31T13:16:21.802Z,56.30
2018-03-31T13:18:49.563Z,57.20
2018-03-31T13:21:16.626Z,57.20
2018-03-31T13:23:43.625Z,57.20
2018-03-31T13:26:10.626Z,58.10
2018-03-31T13:28:37.669Z,57.90
2018-03-31T13:31:04.674Z,56.60
2018-03-31T13:33:31.787Z,55.10
2018-03-31T13:35:58.849Z,55.60
2018-03-31T13:38:25.855Z,56.80
2018-03-31T13:40:52.854Z,55.40
2018-03-31T13:43:20.619Z,55.60
2018-03-31T13:45:47.652Z,55.20
2018-03-31T13:48:14.660Z,54.30
2018-03-31T13:50:41.681Z,53.80
2018-03-31T13:53:08.747Z,53.90
2018-03-31T13:55:35.894Z,52.60
2018-03-31T13:58:03.280Z,53.20
2018-03-31T14:00:30.331Z,52.00
2018-03-31T14:02:57.339Z,51.00
2018-03-31T14:05:32.234Z,53.00
2018-03-31T14:07:59.927Z,54.10
2018-03-31T14:10:26.915Z,54.60
2018-03-31T14:12:55.432Z,54.40
2018-03-31T14:15:23.192Z,54.30
2018-03-31T14:17:51.007Z,55.00
2018-03-31T14:20:19.653Z,55.20
2018-03-31T14:22:46.716Z,55.20
2018-03-31T14:25:13.774Z,56.30
2018-03-31T14:27:42.036Z,56.60
2018-03-31T14:30:29.613Z,56.00
2018-03-31T14:32:56.896Z,56.40
2018-03-31T14:35:23.996Z,57.00
2018-03-31T14:37:51.146Z,56.40
2018-03-31T14:40:20.078Z,57.40
2018-03-31T14:42:48.307Z,57.40
2018-03-31T14:45:15.551Z,57.60
2018-03-31T14:47:42.656Z,57.30
2018-03-31T14:50:10.422Z,58.40
2018-03-31T14:52:39.365Z,56.40
2018-03-31T14:55:06.383Z,56.40
2018-03-31T14:57:33.420Z,55.50
2018-03-31T15:00:00.658Z,52.90
2018-03-31T15:02:29.636Z,51.70
2018-03-31T15:04:57.501Z,53.30
2018-03-31T15:07:25.337Z,49.80
2018-03-31T15:09:52.410Z,49.70
2018-03-31T15:12:20.190Z,51.60
2018-03-31T15:14:48.331Z,51.60
2018-03-31T15:17:15.426Z,53.10
2018-03-31T15:19:42.511Z,53.40
2018-03-31T15:22:09.516Z,54.20
2018-03-31T15:24:36.607Z,55.00
2018-03-31T15:27:03.664Z,55.20
2018-03-31T15:29:30.863Z,54.70
2018-03-31T15:31:57.856Z,54.50
2018-03-31T15:34:24.909Z,54.90
2018-03-31T15:36:51.967Z,54.70
2018-03-31T15:39:19.236Z,54.80
2018-03-31T15:41:46.275Z,54.80
2018-03-31T15:44:14.036Z,53.60
2018-03-31T15:46:42.138Z,54.80
2018-03-31T15:49:09.871Z,55.10
2018-03-31T15:51:36.915Z,55.10
2018-03-31T15:54:04.682Z,55.30
2018-03-31T15:56:32.457Z,54.00
2018-03-31T15:58:59.515Z,54.00
2018-03-31T16:01:26.552Z,54.70
2018-03-31T16:03:53.589Z,54.10
2018-03-31T16:06:21.396Z,54.10
2018-03-31T16:08:48.399Z,54.10
2018-03-31T16:11:16.169Z,55.60
2018-03-31T16:13:43.180Z,55.70
2018-03-31T16:16:11.010Z,55.50
2018-03-31T16:18:38.035Z,55.50
2018-03-31T16:21:05.041Z,55.90
2018-03-31T16:23:32.692Z,56.20
2018-03-31T16:25:59.687Z,56.50
2018-03-31T16:28:28.231Z,57.40
2018-03-31T16:30:55.252Z,58.10
2018-03-31T16:33:22.377Z,58.20
2018-03-31T16:35:49.384Z,58.70
2018-03-31T16:38:17.944Z,58.90
2018-03-31T16:40:45.195Z,58.90
2018-03-31T16:43:13.101Z,57.60
2018-03-31T16:45:40.150Z,57.60
2018-03-31T16:48:07.130Z,57.40
2018-03-31T16:50:34.171Z,57.20
2018-03-31T16:53:01.389Z,57.00
2018-03-31T16:55:29.235Z,58.20
2018-03-31T16:57:56.448Z,58.10
2018-03-31T17:00:24.271Z,58.90
2018-03-31T17:02:51.289Z,58.90
2018-03-31T17:05:19.571Z,60.00
2018-03-31T17:07:46.609Z,60.00
2018-03-31T17:10:14.802Z,60.00
2018-03-31T17:12:41.864Z,60.00
2018-03-31T17:15:08.889Z,60.10
2018-03-31T17:17:35.907Z,59.00
2018-03-31T17:20:03.662Z,59.40
2018-03-31T17:22:30.695Z,59.40
2018-03-31T17:24:57.806Z,60.50
2018-03-31T17:27:24.888Z,60.20
2018-03-31T17:29:55.420Z,61.20
2018-03-31T17:32:22.426Z,61.90
2018-03-31T17:34:53.376Z,63.50
2018-03-31T17:37:20.373Z,63.60
2018-03-31T17:39:48.132Z,65.50
2018-03-31T17:42:15.971Z,66.20
2018-03-31T17:44:42.976Z,66.20
2018-03-31T17:47:10.857Z,67.60
2018-03-31T17:49:37.868Z,67.70
2018-03-31T17:52:05.656Z,70.00
2018-03-31T17:54:32.677Z,69.80
2018-03-31T17:57:00.478Z,70.20
2018-03-31T17:59:27.549Z,70.10
2018-03-31T18:01:54.562Z,70.50
2018-03-31T18:04:21.570Z,71.10
2018-03-31T18:06:48.578Z,70.90
2018-03-31T18:09:15.628Z,71.40
2018-03-31T18:11:42.635Z,73.10
2018-03-31T18:14:09.650Z,73.80
2018-03-31T18:16:36.650Z,74.10
2018-03-31T18:19:03.650Z,73.50
2018-03-31T18:21:31.438Z,74.10
2018-03-31T18:23:58.453Z,74.10
2018-03-31T18:26:25.589Z,75.10
2018-03-31T18:28:52.556Z,76.10
2018-03-31T18:31:19.595Z,77.00
2018-03-31T18:33:47.344Z,78.30
2018-03-31T18:36:14.370Z,78.30
2018-03-31T18:38:41.400Z,79.00
2018-03-31T18:41:08.408Z,79.10
2018-03-31T18:43:36.180Z,80.00
2018-03-31T18:46:03.255Z,80.00
2018-03-31T18:48:30.236Z,80.60
2018-03-31T18:50:57.236Z,81.00
2018-03-31T18:53:24.257Z,81.90
2018-03-31T18:55:52.529Z,82.70
2018-03-31T18:58:20.342Z,82.50
2018-03-31T19:00:47.334Z,82.50
2018-03-31T19:03:15.103Z,83.10
2018-03-31T19:05:42.238Z,83.10
2018-03-31T19:08:09.255Z,84.10
2018-03-31T19:10:36.318Z,84.90
2018-03-31T19:13:03.422Z,84.80
2018-03-31T19:15:30.419Z,84.60
2018-03-31T19:17:58.217Z,85.20
2018-03-31T19:20:25.218Z,85.20
2018-03-31T19:22:52.314Z,86.90
2018-03-31T19:25:25.100Z,87.50
2018-03-31T19:27:52.118Z,88.80
2018-03-31T19:30:19.914Z,89.60
2018-03-31T19:32:46.910Z,89.70
2018-03-31T19:35:14.690Z,90.90
2018-03-31T19:37:42.474Z,90.80
2018-03-31T19:40:09.514Z,90.80
2018-03-31T19:42:36.592Z,91.60
2018-03-31T19:45:03.587Z,93.30
2018-03-31T19:47:31.356Z,94.40
2018-03-31T19:49:58.553Z,94.40
2018-03-31T19:52:25.558Z,95.40
2018-03-31T19:54:52.597Z,96.40
2018-03-31T19:57:19.609Z,96.80
2018-03-31T19:59:46.638Z,97.60
2018-03-31T20:02:13.687Z,98.70
2018-03-31T20:04:41.041Z,99.20
2018-03-31T20:07:08.438Z,99.90
2018-03-31T20:09:35.451Z,99.90
2018-03-31T20:12:02.473Z,99.90
2018-03-31T20:14:29.508Z,99.90
2018-03-31T20:16:56.505Z,99.90
2018-03-31T20:19:23.521Z,99.90
2018-03-31T20:21:50.609Z,99.90
2018-03-31T20:24:18.411Z,99.90
2018-03-31T20:26:45.458Z,99.90
2018-03-31T20:29:12.762Z,99.90
2018-03-31T20:31:46.059Z,99.90
2018-03-31T20:34:13.072Z,99.90
2018-03-31T20:36:40.079Z,99.90
2018-03-31T20:39:07.108Z,99.90
2018-03-31T20:41:35.176Z,99.90
2018-03-31T20:44:02.960Z,99.90
2018-03-31T20:46:42.583Z,99.90
2018-03-31T20:49:12.030Z,99.90
2018-03-31T20:51:39.115Z,99.90
2018-03-31T20:54:06.131Z,99.90
2018-03-31T20:56:33.169Z,99.90
2018-03-31T20:59:00.153Z,99.90
2018-03-31T21:01:28.371Z,99.90
2018-03-31T21:03:55.391Z,99.90
2018-03-31T21:06:23.220Z,99.90
2018-03-31T21:08:50.242Z,99.90
2018-03-31T21:11:17.257Z,99.90
2018-03-31T21:13:44.270Z,99.90
2018-03-31T21:16:11.282Z,99.90
2018-03-31T21:18:38.312Z,99.90
2018-03-31T21:21:05.337Z,99.90
2018-03-31T21:23:33.117Z,99.90
2018-03-31T21:26:00.108Z,99.90
2018-03-31T21:28:27.136Z,99.90
2018-03-31T21:30:54.136Z,99.90
2018-03-31T21:33:21.157Z,99.90
2018-03-31T21:35:48.204Z,99.90
2018-03-31T21:38:15.308Z,99.90
2018-03-31T21:40:42.350Z,99.90
2018-03-31T21:43:09.363Z,99.90
2018-03-31T21:45:37.161Z,99.90
2018-03-31T21:48:04.198Z,99.90
2018-03-31T21:50:31.251Z,99.90
2018-03-31T21:52:58.973Z,99.90
2018-03-31T21:55:26.761Z,99.90
2018-03-31T21:57:53.817Z,99.90
2018-03-31T22:00:20.826Z,99.90
2018-03-31T22:02:48.600Z,99.90
2018-03-31T22:05:16.375Z,99.90
2018-03-31T22:07:43.382Z,99.90
2018-03-31T22:10:10.387Z,99.90
2018-03-31T22:12:37.389Z,99.90
2018-03-31T22:15:10.764Z,99.90
2018-03-31T22:17:37.754Z,99.90
2018-03-31T22:20:04.742Z,99.90
2018-03-31T22:22:31.866Z,99.90
2018-03-31T22:24:58.840Z,99.90
2018-03-31T22:27:27.260Z,99.90
2018-03-31T22:29:58.560Z,99.90
2018-03-31T22:32:25.825Z,99.90
2018-03-31T22:34:53.936Z,99.90
2018-03-31T22:37:22.580Z,99.90
2018-03-31T22:39:49.650Z,99.90
2018-03-31T22:42:17.450Z,99.90
2018-03-31T22:44:44.734Z,99.90
2018-03-31T22:47:11.822Z,99.90
2018-03-31T22:49:39.639Z,99.90
2018-03-31T22:52:06.774Z,99.90
2018-03-31T22:54:33.810Z,99.90
2018-03-31T22:57:00.799Z,99.90
2018-03-31T22:59:27.818Z,99.90
2018-03-31T23:01:54.810Z,99.90
2018-03-31T23:04:22.591Z,99.90
2018-03-31T23:06:50.348Z,99.90
2018-03-31T23:09:17.422Z,99.90
2018-03-31T23:11:44.460Z,99.90
2018-03-31T23:14:11.465Z,99.90
2018-03-31T23:16:39.233Z,99.90
2018-03-31T23:19:07.017Z,99.90
2018-03-31T23:21:34.013Z,99.90
2018-03-31T23:24:01.040Z,99.90
2018-03-31T23:26:28.042Z,99.90
2018-03-31T23:28:55.055Z,99.90
2018-03-31T23:31:22.167Z,99.90
2018-03-31T23:33:49.146Z,99.90
2018-03-31T23:36:16.219Z,99.90
2018-03-31T23:38:43.966Z,99.90
2018-03-31T23:41:12.495Z,99.90
2018-03-31T23:43:39.562Z,99.90
2018-03-31T23:46:06.576Z,99.90
2018-03-31T23:48:33.565Z,99.90
2018-03-31T23:51:00.604Z,99.90
2018-03-31T23:53:27.593Z,99.90
2018-03-31T23:55:55.451Z,99.90
2018-03-31T23:58:23.236Z,99.90
